sensor_id;sensor_type;location;lat;lon;timestamp;pressure;altitude;pressure_sealevel;temperature;humidity
42105;BME280;70664;51.472;5.712;2024-03-23T00:54:34;100903.16;;;17.35;68.27
42105;BME280;70664;51.472;5.712;2024-03-23T00:57:00;100902.34;;;17.33;68.22
42105;BME280;70664;51.472;5.712;2024-03-23T00:59:26;100899.81;;;17.29;67.99
42105;BME280;70664;51.472;5.712;2024-03-23T01:01:56;100903.28;;;17.29;68.00
42105;BME280;70664;51.472;5.712;2024-03-23T01:04:22;100899.09;;;17.24;68.39
42105;BME280;70664;51.472;5.712;2024-03-23T01:06:48;100900.91;;;17.20;68.45
42105;BME280;70664;51.472;5.712;2024-03-23T01:09:14;100907.94;;;17.16;68.35
42105;BME280;70664;51.472;5.712;2024-03-23T01:11:40;100907.94;;;17.15;68.58
42105;BME280;70664;51.472;5.712;2024-03-23T01:14:06;100901.09;;;17.12;68.56
42105;BME280;70664;51.472;5.712;2024-03-23T01:16:32;100896.78;;;17.11;68.35
42105;BME280;70664;51.472;5.712;2024-03-23T01:18:58;100889.03;;;17.10;68.52
42105;BME280;70664;51.472;5.712;2024-03-23T01:21:24;100882.16;;;17.07;68.37
42105;BME280;70664;51.472;5.712;2024-03-23T01:23:50;100883.94;;;17.05;68.79
42105;BME280;70664;51.472;5.712;2024-03-23T01:26:16;100885.69;;;17.04;68.39
42105;BME280;70664;51.472;5.712;2024-03-23T01:28:42;100882.25;;;17.02;68.74
42105;BME280;70664;51.472;5.712;2024-03-23T01:31:07;100884.00;;;17.02;68.68
42105;BME280;70664;51.472;5.712;2024-03-23T01:33:33;100882.34;;;16.99;68.52
42105;BME280;70664;51.472;5.712;2024-03-23T01:35:59;100880.59;;;17.00;68.40
42105;BME280;70664;51.472;5.712;2024-03-23T01:38:24;100880.63;;;16.98;68.42
42105;BME280;70664;51.472;5.712;2024-03-23T01:40:57;100883.25;;;16.95;68.77
42105;BME280;70664;51.472;5.712;2024-03-23T01:43:23;100882.41;;;16.95;68.85
42105;BME280;70664;51.472;5.712;2024-03-23T01:45:49;100881.53;;;16.94;68.75
42105;BME280;70664;51.472;5.712;2024-03-23T01:48:15;100879.88;;;16.91;68.46
42105;BME280;70664;51.472;5.712;2024-03-23T01:50:41;100891.97;;;16.92;68.67
42105;BME280;70664;51.472;5.712;2024-03-23T01:53:07;100887.69;;;16.90;68.48
42105;BME280;70664;51.472;5.712;2024-03-23T01:55:33;100877.34;;;16.88;68.67
42105;BME280;70664;51.472;5.712;2024-03-23T01:57:59;100863.50;;;16.88;68.51
42105;BME280;70664;51.472;5.712;2024-03-23T02:00:25;100865.31;;;16.86;68.46
42105;BME280;70664;51.472;5.712;2024-03-23T02:02:53;100857.53;;;16.84;68.40
42105;BME280;70664;51.472;5.712;2024-03-23T02:05:19;100858.41;;;16.83;68.46
42105;BME280;70664;51.472;5.712;2024-03-23T02:07:45;100873.19;;;16.81;68.87
42105;BME280;70664;51.472;5.712;2024-03-23T02:10:11;100875.78;;;16.81;68.85
42105;BME280;70664;51.472;5.712;2024-03-23T02:12:39;100868.88;;;16.80;68.50
42105;BME280;70664;51.472;5.712;2024-03-23T02:15:05;100878.41;;;16.80;68.50
42105;BME280;70664;51.472;5.712;2024-03-23T02:17:34;100880.19;;;16.77;68.81
42105;BME280;70664;51.472;5.712;2024-03-23T02:20:02;100883.69;;;16.76;68.73
42105;BME280;70664;51.472;5.712;2024-03-23T02:22:38;100881.91;;;16.77;68.81
42105;BME280;70664;51.472;5.712;2024-03-23T02:25:05;100874.19;;;16.75;68.52
42105;BME280;70664;51.472;5.712;2024-03-23T02:27:32;100869.00;;;16.74;68.61
42105;BME280;70664;51.472;5.712;2024-03-23T02:29:58;100861.22;;;16.74;68.59
42105;BME280;70664;51.472;5.712;2024-03-23T02:32:24;100855.22;;;16.72;68.80
42105;BME280;70664;51.472;5.712;2024-03-23T02:34:50;100859.59;;;16.70;68.33
42105;BME280;70664;51.472;5.712;2024-03-23T02:37:15;100853.53;;;16.69;68.53
42105;BME280;70664;51.472;5.712;2024-03-23T02:39:41;100854.41;;;16.68;68.66
42105;BME280;70664;51.472;5.712;2024-03-23T02:42:07;100857.91;;;16.67;68.65
42105;BME280;70664;51.472;5.712;2024-03-23T02:44:33;100857.91;;;16.67;68.33
42105;BME280;70664;51.472;5.712;2024-03-23T02:46:58;100846.69;;;16.65;68.73
42105;BME280;70664;51.472;5.712;2024-03-23T02:49:25;100845.00;;;16.64;68.63
42105;BME280;70664;51.472;5.712;2024-03-23T02:51:51;100846.75;;;16.63;68.43
42105;BME280;70664;51.472;5.712;2024-03-23T02:54:16;100837.25;;;16.62;68.33
42105;BME280;70664;51.472;5.712;2024-03-23T02:56:42;100836.38;;;16.62;68.67
42105;BME280;70664;51.472;5.712;2024-03-23T02:59:08;100840.72;;;16.61;68.74
42105;BME280;70664;51.472;5.712;2024-03-23T03:01:33;100834.72;;;16.59;68.38
42105;BME280;70664;51.472;5.712;2024-03-23T03:04:00;100837.31;;;16.59;68.18
42105;BME280;70664;51.472;5.712;2024-03-23T03:06:26;100834.72;;;16.59;68.78
42105;BME280;70664;51.472;5.712;2024-03-23T03:08:52;100829.56;;;16.58;68.80
42105;BME280;70664;51.472;5.712;2024-03-23T03:11:18;100826.09;;;16.57;68.38
42105;BME280;70664;51.472;5.712;2024-03-23T03:13:44;100828.75;;;16.56;68.54
42105;BME280;70664;51.472;5.712;2024-03-23T03:16:13;100834.81;;;16.55;68.36
42105;BME280;70664;51.472;5.712;2024-03-23T03:18:39;100835.72;;;16.54;68.67
42105;BME280;70664;51.472;5.712;2024-03-23T03:21:09;100840.91;;;16.52;68.71
42105;BME280;70664;51.472;5.712;2024-03-23T03:23:39;100843.50;;;16.52;68.35
42105;BME280;70664;51.472;5.712;2024-03-23T03:26:06;100842.63;;;16.53;68.59
42105;BME280;70664;51.472;5.712;2024-03-23T03:28:33;100832.28;;;16.52;68.44
42105;BME280;70664;51.472;5.712;2024-03-23T03:31:00;100846.16;;;16.51;68.69
42105;BME280;70664;51.472;5.712;2024-03-23T03:33:29;100839.25;;;16.50;68.54
42105;BME280;70664;51.472;5.712;2024-03-23T03:35:55;100821.09;;;16.50;68.62
42105;BME280;70664;51.472;5.712;2024-03-23T03:38:21;100828.06;;;16.47;68.39
42105;BME280;70664;51.472;5.712;2024-03-23T03:40:47;100826.28;;;16.48;68.50
42105;BME280;70664;51.472;5.712;2024-03-23T03:43:13;100820.28;;;16.46;68.59
42105;BME280;70664;51.472;5.712;2024-03-23T03:45:39;100825.47;;;16.46;68.50
42105;BME280;70664;51.472;5.712;2024-03-23T03:48:05;100826.34;;;16.45;68.22
42105;BME280;70664;51.472;5.712;2024-03-23T03:50:31;100827.28;;;16.44;68.56
42105;BME280;70664;51.472;5.712;2024-03-23T03:52:57;100825.56;;;16.43;68.67
42105;BME280;70664;51.472;5.712;2024-03-23T03:55:22;100824.69;;;16.42;68.49
42105;BME280;70664;51.472;5.712;2024-03-23T03:57:48;100817.78;;;16.41;68.15
42105;BME280;70664;51.472;5.712;2024-03-23T04:00:14;100819.50;;;16.42;68.59
42105;BME280;70664;51.472;5.712;2024-03-23T04:02:41;100813.50;;;16.40;68.36
42105;BME280;70664;51.472;5.712;2024-03-23T04:05:07;100824.75;;;16.39;68.47
42105;BME280;70664;51.472;5.712;2024-03-23T04:07:33;100816.97;;;16.39;68.11
42105;BME280;70664;51.472;5.712;2024-03-23T04:09:59;100817.88;;;16.38;68.38
42105;BME280;70664;51.472;5.712;2024-03-23T04:12:25;100815.25;;;16.38;68.41
42105;BME280;70664;51.472;5.712;2024-03-23T04:14:51;100817.91;;;16.37;68.39
42105;BME280;70664;51.472;5.712;2024-03-23T04:17:17;100823.94;;;16.37;68.20
42105;BME280;70664;51.472;5.712;2024-03-23T04:19:44;100822.22;;;16.36;68.27
42105;BME280;70664;51.472;5.712;2024-03-23T04:22:09;100831.75;;;16.36;68.16
42105;BME280;70664;51.472;5.712;2024-03-23T04:24:35;100834.38;;;16.34;68.27
42105;BME280;70664;51.472;5.712;2024-03-23T04:27:01;100828.34;;;16.33;68.17
42105;BME280;70664;51.472;5.712;2024-03-23T04:29:27;100825.75;;;16.33;68.13
42105;BME280;70664;51.472;5.712;2024-03-23T04:31:53;100829.19;;;16.34;68.50
42105;BME280;70664;51.472;5.712;2024-03-23T04:34:19;100833.53;;;16.32;68.37
42105;BME280;70664;51.472;5.712;2024-03-23T04:36:44;100834.44;;;16.31;68.13
42105;BME280;70664;51.472;5.712;2024-03-23T04:39:10;100830.16;;;16.30;68.48
42105;BME280;70664;51.472;5.712;2024-03-23T04:41:36;100826.69;;;16.29;68.36
42105;BME280;70664;51.472;5.712;2024-03-23T04:44:02;100824.16;;;16.28;68.58
42105;BME280;70664;51.472;5.712;2024-03-23T04:46:27;100827.59;;;16.28;68.35
42105;BME280;70664;51.472;5.712;2024-03-23T04:48:53;100830.22;;;16.27;68.31
42105;BME280;70664;51.472;5.712;2024-03-23T04:51:23;100825.03;;;16.27;68.48
42105;BME280;70664;51.472;5.712;2024-03-23T04:53:49;100818.16;;;16.24;68.03
42105;BME280;70664;51.472;5.712;2024-03-23T04:56:16;100832.84;;;16.25;68.32
42105;BME280;70664;51.472;5.712;2024-03-23T04:58:45;100825.94;;;16.24;68.23
42105;BME280;70664;51.472;5.712;2024-03-23T05:01:11;100827.69;;;16.24;68.29
42105;BME280;70664;51.472;5.712;2024-03-23T05:03:37;100829.41;;;16.25;68.12
42105;BME280;70664;51.472;5.712;2024-03-23T05:06:03;100826.81;;;16.23;68.19
42105;BME280;70664;51.472;5.712;2024-03-23T05:08:30;100834.66;;;16.22;68.14
42105;BME280;70664;51.472;5.712;2024-03-23T05:10:56;100832.06;;;16.22;68.32
42105;BME280;70664;51.472;5.712;2024-03-23T05:13:22;100828.59;;;16.21;68.22
42105;BME280;70664;51.472;5.712;2024-03-23T05:15:55;100834.66;;;16.20;68.26
42105;BME280;70664;51.472;5.712;2024-03-23T05:18:21;100827.75;;;16.19;67.90
42105;BME280;70664;51.472;5.712;2024-03-23T05:20:47;100830.41;;;16.17;68.21
42105;BME280;70664;51.472;5.712;2024-03-23T05:23:13;100831.25;;;16.18;68.00
42105;BME280;70664;51.472;5.712;2024-03-23T05:25:39;100838.19;;;16.17;68.07
42105;BME280;70664;51.472;5.712;2024-03-23T05:28:05;100830.44;;;16.16;67.99
42105;BME280;70664;51.472;5.712;2024-03-23T05:30:31;100823.53;;;16.15;68.10
42105;BME280;70664;51.472;5.712;2024-03-23T05:32:56;100826.16;;;16.15;68.04
42105;BME280;70664;51.472;5.712;2024-03-23T05:35:22;100831.34;;;16.15;68.14
42105;BME280;70664;51.472;5.712;2024-03-23T05:37:48;100825.28;;;16.14;67.96
42105;BME280;70664;51.472;5.712;2024-03-23T05:40:14;100829.63;;;16.14;68.18
42105;BME280;70664;51.472;5.712;2024-03-23T05:42:41;100822.72;;;16.13;68.23
42105;BME280;70664;51.472;5.712;2024-03-23T05:45:07;100824.44;;;16.12;68.01
42105;BME280;70664;51.472;5.712;2024-03-23T05:47:33;100832.22;;;16.12;68.27
42105;BME280;70664;51.472;5.712;2024-03-23T05:49:59;100840.88;;;16.11;67.92
42105;BME280;70664;51.472;5.712;2024-03-23T05:52:25;100831.41;;;16.10;68.15
42105;BME280;70664;51.472;5.712;2024-03-23T05:54:52;100821.03;;;16.10;68.32
42105;BME280;70664;51.472;5.712;2024-03-23T05:57:18;100822.78;;;16.10;68.34
42105;BME280;70664;51.472;5.712;2024-03-23T05:59:45;100830.56;;;16.10;67.86
42105;BME280;70664;51.472;5.712;2024-03-23T06:02:11;100832.28;;;16.09;68.03
42105;BME280;70664;51.472;5.712;2024-03-23T06:04:37;100827.97;;;16.08;67.66
42105;BME280;70664;51.472;5.712;2024-03-23T06:07:03;100829.72;;;16.08;67.82
42105;BME280;70664;51.472;5.712;2024-03-23T06:09:32;100828.84;;;16.09;67.94
42105;BME280;70664;51.472;5.712;2024-03-23T06:11:57;100829.72;;;16.08;67.94
42105;BME280;70664;51.472;5.712;2024-03-23T06:14:23;100825.44;;;16.07;67.67
42105;BME280;70664;51.472;5.712;2024-03-23T06:16:49;100826.31;;;16.06;67.75
42105;BME280;70664;51.472;5.712;2024-03-23T06:19:15;100826.31;;;16.06;67.96
42105;BME280;70664;51.472;5.712;2024-03-23T06:21:44;100830.63;;;16.05;67.80
42105;BME280;70664;51.472;5.712;2024-03-23T06:24:11;100831.50;;;16.06;67.92
42105;BME280;70664;51.472;5.712;2024-03-23T06:26:37;100826.31;;;16.06;67.71
42105;BME280;70664;51.472;5.712;2024-03-23T06:29:03;100837.56;;;16.05;68.09
42105;BME280;70664;51.472;5.712;2024-03-23T06:31:31;100834.97;;;16.05;67.93
42105;BME280;70664;51.472;5.712;2024-03-23T06:33:56;100835.88;;;16.03;67.70
42105;BME280;70664;51.472;5.712;2024-03-23T06:36:22;100841.03;;;16.03;67.99
42105;BME280;70664;51.472;5.712;2024-03-23T06:38:48;100832.41;;;16.03;67.74
42105;BME280;70664;51.472;5.712;2024-03-23T06:41:14;100841.03;;;16.03;67.63
42105;BME280;70664;51.472;5.712;2024-03-23T06:43:39;100847.94;;;16.05;67.94
42105;BME280;70664;51.472;5.712;2024-03-23T06:46:05;100844.47;;;16.04;67.72
42105;BME280;70664;51.472;5.712;2024-03-23T06:48:31;100856.56;;;16.05;67.73
42105;BME280;70664;51.472;5.712;2024-03-23T06:50:57;100856.56;;;16.07;67.68
42105;BME280;70664;51.472;5.712;2024-03-23T06:53:23;100843.53;;;16.08;67.59
42105;BME280;70664;51.472;5.712;2024-03-23T06:55:53;100844.44;;;16.07;67.67
42105;BME280;70664;51.472;5.712;2024-03-23T06:58:24;100842.72;;;16.06;68.01
42105;BME280;70664;51.472;5.712;2024-03-23T07:00:50;100849.66;;;16.04;67.32
42105;BME280;70664;51.472;5.712;2024-03-23T07:03:17;100846.28;;;16.02;67.71
42105;BME280;70664;51.472;5.712;2024-03-23T07:05:43;100846.28;;;16.02;67.52
42105;BME280;70664;51.472;5.712;2024-03-23T07:08:09;100848.88;;;16.00;67.34
42105;BME280;70664;51.472;5.712;2024-03-23T07:10:34;100854.06;;;16.00;67.83
42105;BME280;70664;51.472;5.712;2024-03-23T07:13:01;100854.91;;;16.02;67.89
42105;BME280;70664;51.472;5.712;2024-03-23T07:15:27;100851.47;;;16.00;67.87
42105;BME280;70664;51.472;5.712;2024-03-23T07:17:52;100852.34;;;15.99;67.53
42105;BME280;70664;51.472;5.712;2024-03-23T07:20:18;100853.25;;;15.98;67.50
42105;BME280;70664;51.472;5.712;2024-03-23T07:22:46;100859.31;;;15.99;67.79
42105;BME280;70664;51.472;5.712;2024-03-23T07:25:13;100846.34;;;15.97;67.47
42105;BME280;70664;51.472;5.712;2024-03-23T07:27:38;100848.94;;;15.97;67.76
42105;BME280;70664;51.472;5.712;2024-03-23T07:30:06;100842.03;;;15.96;67.67
42105;BME280;70664;51.472;5.712;2024-03-23T07:32:31;100850.63;;;16.00;67.34
42105;BME280;70664;51.472;5.712;2024-03-23T07:34:57;100849.75;;;16.01;67.67
42105;BME280;70664;51.472;5.712;2024-03-23T07:37:23;100850.59;;;16.01;67.61
42105;BME280;70664;51.472;5.712;2024-03-23T07:39:49;100852.31;;;16.02;67.58
42105;BME280;70664;51.472;5.712;2024-03-23T07:42:15;100847.16;;;16.01;67.29
42105;BME280;70664;51.472;5.712;2024-03-23T07:44:41;100856.66;;;16.02;67.24
42105;BME280;70664;51.472;5.712;2024-03-23T07:47:06;100850.59;;;16.01;67.38
42105;BME280;70664;51.472;5.712;2024-03-23T07:49:32;100849.75;;;16.01;67.81
42105;BME280;70664;51.472;5.712;2024-03-23T07:51:58;100856.66;;;16.00;67.63
42105;BME280;70664;51.472;5.712;2024-03-23T07:54:24;100854.91;;;16.02;67.72
42105;BME280;70664;51.472;5.712;2024-03-23T07:56:50;100849.72;;;16.02;67.81
42105;BME280;70664;51.472;5.712;2024-03-23T07:59:15;100850.53;;;16.05;67.32
42105;BME280;70664;51.472;5.712;2024-03-23T08:01:41;100845.31;;;16.06;67.40
42105;BME280;70664;51.472;5.712;2024-03-23T08:04:07;100840.13;;;16.06;67.69
42105;BME280;70664;51.472;5.712;2024-03-23T08:06:33;100856.50;;;16.08;67.56
42105;BME280;70664;51.472;5.712;2024-03-23T08:08:58;100848.72;;;16.08;67.29
42105;BME280;70664;51.472;5.712;2024-03-23T08:11:29;100848.72;;;16.08;67.45
42105;BME280;70664;51.472;5.712;2024-03-23T08:13:56;100855.63;;;16.09;67.46
42105;BME280;70664;51.472;5.712;2024-03-23T08:16:22;100840.94;;;16.10;67.30
42105;BME280;70664;51.472;5.712;2024-03-23T08:18:50;100854.75;;;16.10;67.13
42105;BME280;70664;51.472;5.712;2024-03-23T08:21:16;100847.84;;;16.09;67.37
42105;BME280;70664;51.472;5.712;2024-03-23T08:23:42;100852.13;;;16.12;67.51
42105;BME280;70664;51.472;5.712;2024-03-23T08:26:11;100847.84;;;16.11;67.50
42105;BME280;70664;51.472;5.712;2024-03-23T08:28:38;100847.78;;;16.12;67.50
42105;BME280;70664;51.472;5.712;2024-03-23T08:31:08;100845.19;;;16.12;67.57
42105;BME280;70664;51.472;5.712;2024-03-23T08:33:35;100848.66;;;16.13;67.90
42105;BME280;70664;51.472;5.712;2024-03-23T08:36:07;100839.16;;;16.12;67.74
42105;BME280;70664;51.472;5.712;2024-03-23T08:38:33;100846.06;;;16.11;67.88
42105;BME280;70664;51.472;5.712;2024-03-23T08:41:10;100845.19;;;16.12;68.07
42105;BME280;70664;51.472;5.712;2024-03-23T08:43:38;100845.19;;;16.12;67.90
42105;BME280;70664;51.472;5.712;2024-03-23T08:46:13;100842.59;;;16.14;68.26
42105;BME280;70664;51.472;5.712;2024-03-23T08:48:45;100843.47;;;16.11;68.20
42105;BME280;70664;51.472;5.712;2024-03-23T08:51:12;100839.19;;;16.10;68.73
42105;BME280;70664;51.472;5.712;2024-03-23T08:53:39;100840.00;;;16.12;68.44
42105;BME280;70664;51.472;5.712;2024-03-23T08:56:06;100838.28;;;16.11;68.68
42105;BME280;70664;51.472;5.712;2024-03-23T08:58:34;100843.47;;;16.13;68.56
42105;BME280;70664;51.472;5.712;2024-03-23T09:01:18;100835.75;;;16.10;68.74
42105;BME280;70664;51.472;5.712;2024-03-23T09:03:44;100835.75;;;16.10;69.12
42105;BME280;70664;51.472;5.712;2024-03-23T09:06:12;100841.81;;;16.09;68.96
42105;BME280;70664;51.472;5.712;2024-03-23T09:08:38;100836.66;;;16.07;69.20
42105;BME280;70664;51.472;5.712;2024-03-23T09:11:07;100843.53;;;16.08;69.07
42105;BME280;70664;51.472;5.712;2024-03-23T09:13:35;100841.81;;;16.07;69.21
42105;BME280;70664;51.472;5.712;2024-03-23T09:16:01;100848.78;;;16.07;69.06
42105;BME280;70664;51.472;5.712;2024-03-23T09:18:27;100863.47;;;16.06;69.10
42105;BME280;70664;51.472;5.712;2024-03-23T09:20:53;100896.34;;;16.06;69.28
42105;BME280;70664;51.472;5.712;2024-03-23T09:23:21;100906.72;;;16.04;69.32
42105;BME280;70664;51.472;5.712;2024-03-23T09:25:47;100904.13;;;16.04;69.07
42105;BME280;70664;51.472;5.712;2024-03-23T09:28:22;100886.03;;;16.02;69.31
42105;BME280;70664;51.472;5.712;2024-03-23T09:30:48;100868.75;;;16.01;69.37
42105;BME280;70664;51.472;5.712;2024-03-23T09:33:14;100859.25;;;16.02;69.24
42105;BME280;70664;51.472;5.712;2024-03-23T09:35:41;100848.00;;;16.01;69.00
42105;BME280;70664;51.472;5.712;2024-03-23T09:38:08;100841.03;;;16.03;69.04
42105;BME280;70664;51.472;5.712;2024-03-23T09:40:44;100841.00;;;16.05;69.29
42105;BME280;70664;51.472;5.712;2024-03-23T09:43:10;100851.38;;;16.05;69.32
42105;BME280;70664;51.472;5.712;2024-03-23T09:45:40;100850.50;;;16.06;69.05
42105;BME280;70664;51.472;5.712;2024-03-23T09:48:09;100841.88;;;16.04;69.33
42105;BME280;70664;51.472;5.712;2024-03-23T09:50:44;100855.75;;;16.03;69.52
42105;BME280;70664;51.472;5.712;2024-03-23T09:53:12;100849.72;;;16.02;69.34
42105;BME280;70664;51.472;5.712;2024-03-23T09:55:42;100849.66;;;16.04;69.71
42105;BME280;70664;51.472;5.712;2024-03-23T09:58:12;100846.22;;;16.03;69.37
42105;BME280;70664;51.472;5.712;2024-03-23T10:00:39;100840.19;;;16.03;69.42
42105;BME280;70664;51.472;5.712;2024-03-23T10:03:05;100834.16;;;16.02;69.15
42105;BME280;70664;51.472;5.712;2024-03-23T10:05:32;100837.56;;;16.05;69.16
42105;BME280;70664;51.472;5.712;2024-03-23T10:08:18;100834.09;;;16.04;68.44
42105;BME280;70664;51.472;5.712;2024-03-23T10:10:46;100835.00;;;16.03;68.36
42105;BME280;70664;51.472;5.712;2024-03-23T10:13:27;100826.31;;;16.04;68.29
42105;BME280;70664;51.472;5.712;2024-03-23T10:15:56;100828.91;;;16.04;68.10
42105;BME280;70664;51.472;5.712;2024-03-23T10:18:23;100834.06;;;16.07;68.02
42105;BME280;70664;51.472;5.712;2024-03-23T11:30:49;100802.03;;;16.10;68.80
42105;BME280;70664;51.472;5.712;2024-03-23T11:33:15;100802.09;;;16.05;68.66
42105;BME280;70664;51.472;5.712;2024-03-23T11:35:41;100798.63;;;16.06;68.42
42105;BME280;70664;51.472;5.712;2024-03-23T11:38:18;100802.91;;;16.09;68.29
42105;BME280;70664;51.472;5.712;2024-03-23T11:40:50;100796.78;;;16.13;68.36
42105;BME280;70664;51.472;5.712;2024-03-23T11:43:17;100807.16;;;16.13;68.41
42105;BME280;70664;51.472;5.712;2024-03-23T11:48:13;100804.56;;;16.13;69.09
42105;BME280;70664;51.472;5.712;2024-03-23T11:50:43;100816.72;;;16.11;68.86
42105;BME280;70664;51.472;5.712;2024-03-23T11:53:20;100813.22;;;16.12;69.23
42105;BME280;70664;51.472;5.712;2024-03-23T11:55:58;100811.53;;;16.09;69.14
42105;BME280;70664;51.472;5.712;2024-03-23T11:58:25;100815.00;;;16.10;69.09
42105;BME280;70664;51.472;5.712;2024-03-23T12:00:59;100809.00;;;16.06;69.57
42105;BME280;70664;51.472;5.712;2024-03-23T12:03:26;100810.75;;;16.04;69.74
42105;BME280;70664;51.472;5.712;2024-03-23T12:05:59;100818.53;;;16.04;70.12
42105;BME280;70664;51.472;5.712;2024-03-23T12:11:12;100824.63;;;16.03;70.22
42105;BME280;70664;51.472;5.712;2024-03-23T12:13:39;100822.94;;;16.02;70.30
42105;BME280;70664;51.472;5.712;2024-03-23T12:16:20;100830.72;;;16.00;70.81
42105;BME280;70664;51.472;5.712;2024-03-23T12:18:50;100823.94;;;15.95;71.21
42105;BME280;70664;51.472;5.712;2024-03-23T12:21:20;100824.81;;;15.94;71.22
42105;BME280;70664;51.472;5.712;2024-03-23T12:23:48;100817.91;;;15.93;70.68
42105;BME280;70664;51.472;5.712;2024-03-23T12:26:15;100823.16;;;15.90;69.96
42105;BME280;70664;51.472;5.712;2024-03-23T12:28:43;100824.03;;;15.88;69.61
42105;BME280;70664;51.472;5.712;2024-03-23T12:31:10;100824.94;;;15.87;69.05
42105;BME280;70664;51.472;5.712;2024-03-23T12:33:35;100812.78;;;15.90;68.37
42105;BME280;70664;51.472;5.712;2024-03-23T12:36:01;100817.09;;;15.91;68.63
42105;BME280;70664;51.472;5.712;2024-03-23T12:38:27;100804.91;;;15.94;68.39
42105;BME280;70664;51.472;5.712;2024-03-23T12:40:53;100801.38;;;15.98;68.98
42105;BME280;70664;51.472;5.712;2024-03-23T12:43:19;100796.06;;;16.05;68.54
42105;BME280;70664;51.472;5.712;2024-03-23T12:45:48;100791.72;;;16.05;68.60
42105;BME280;70664;51.472;5.712;2024-03-23T12:48:14;100794.25;;;16.08;68.81
42105;BME280;70664;51.472;5.712;2024-03-23T12:50:40;100808.16;;;16.06;68.51
42105;BME280;70664;51.472;5.712;2024-03-23T12:53:06;100788.25;;;16.06;68.73
42105;BME280;70664;51.472;5.712;2024-03-23T12:55:32;100801.22;;;16.06;68.70
42105;BME280;70664;51.472;5.712;2024-03-23T12:58:00;100788.25;;;16.08;69.08
42105;BME280;70664;51.472;5.712;2024-03-23T13:00:25;100786.53;;;16.07;69.08
42105;BME280;70664;51.472;5.712;2024-03-23T13:02:51;100772.63;;;16.09;68.92
42105;BME280;70664;51.472;5.712;2024-03-23T13:05:17;100783.09;;;16.05;69.01
42105;BME280;70664;51.472;5.712;2024-03-23T13:07:43;100778.75;;;16.05;69.41
42105;BME280;70664;51.472;5.712;2024-03-23T13:10:09;100786.53;;;16.05;69.42
42105;BME280;70664;51.472;5.712;2024-03-23T13:12:34;100795.13;;;16.09;69.02
42105;BME280;70664;51.472;5.712;2024-03-23T13:15:00;100795.97;;;16.09;68.97
42105;BME280;70664;51.472;5.712;2024-03-23T13:17:27;100805.44;;;16.12;68.64
42105;BME280;70664;51.472;5.712;2024-03-23T13:19:54;100800.25;;;16.12;68.46
42105;BME280;70664;51.472;5.712;2024-03-23T13:22:23;100801.97;;;16.13;68.54
42105;BME280;70664;51.472;5.712;2024-03-23T13:24:49;100805.44;;;16.12;68.63
42105;BME280;70664;51.472;5.712;2024-03-23T13:27:16;100799.41;;;16.11;68.38
42105;BME280;70664;51.472;5.712;2024-03-23T13:29:42;100798.50;;;16.14;68.21
42105;BME280;70664;51.472;5.712;2024-03-23T13:32:08;100783.75;;;16.16;68.08
42105;BME280;70664;51.472;5.712;2024-03-23T13:34:34;100793.22;;;16.17;68.48
42105;BME280;70664;51.472;5.712;2024-03-23T13:37:01;100790.66;;;16.15;68.28
42105;BME280;70664;51.472;5.712;2024-03-23T13:39:26;100785.53;;;16.14;68.29
42105;BME280;70664;51.472;5.712;2024-03-23T13:41:55;100766.53;;;16.12;68.44
42105;BME280;70664;51.472;5.712;2024-03-23T13:44:21;100765.66;;;16.13;68.35
42105;BME280;70664;51.472;5.712;2024-03-23T13:46:47;100777.75;;;16.14;68.45
42105;BME280;70664;51.472;5.712;2024-03-23T13:49:30;100767.38;;;16.12;68.43
42105;BME280;70664;51.472;5.712;2024-03-23T13:51:57;100765.63;;;16.14;68.11
42105;BME280;70664;51.472;5.712;2024-03-23T13:54:24;100761.28;;;16.15;68.03
42105;BME280;70664;51.472;5.712;2024-03-23T13:56:55;100763.00;;;16.16;68.17
42105;BME280;70664;51.472;5.712;2024-03-23T13:59:22;100754.31;;;16.17;67.89
42105;BME280;70664;51.472;5.712;2024-03-23T14:01:49;100759.50;;;16.17;68.00
42105;BME280;70664;51.472;5.712;2024-03-23T14:04:15;100756.06;;;16.16;67.94
42105;BME280;70664;51.472;5.712;2024-03-23T14:06:43;100754.31;;;16.17;67.89
42105;BME280;70664;51.472;5.712;2024-03-23T14:09:14;100748.34;;;16.13;68.19
42105;BME280;70664;51.472;5.712;2024-03-23T14:11:41;100746.63;;;16.14;68.47
42105;BME280;70664;51.472;5.712;2024-03-23T14:14:09;100743.97;;;16.15;67.92
42105;BME280;70664;51.472;5.712;2024-03-23T14:16:35;100737.94;;;16.15;68.14
42105;BME280;70664;51.472;5.712;2024-03-23T14:19:00;100734.47;;;16.16;68.28
42105;BME280;70664;51.472;5.712;2024-03-23T14:21:26;100733.56;;;16.17;67.89
42105;BME280;70664;51.472;5.712;2024-03-23T14:23:52;100737.06;;;16.16;68.17
42105;BME280;70664;51.472;5.712;2024-03-23T14:26:19;100735.31;;;16.16;67.76
42105;BME280;70664;51.472;5.712;2024-03-23T14:28:45;100739.63;;;16.17;67.52
42105;BME280;70664;51.472;5.712;2024-03-23T14:31:11;100744.84;;;16.16;67.73
42105;BME280;70664;51.472;5.712;2024-03-23T14:33:38;100737.06;;;16.16;68.10
42105;BME280;70664;51.472;5.712;2024-03-23T14:36:07;100738.78;;;16.15;67.72
42105;BME280;70664;51.472;5.712;2024-03-23T14:38:32;100737.91;;;16.16;67.60
42105;BME280;70664;51.472;5.712;2024-03-23T14:41:01;100732.72;;;16.16;67.23
42105;BME280;70664;51.472;5.712;2024-03-23T14:43:29;100731.00;;;16.15;67.69
42105;BME280;70664;51.472;5.712;2024-03-23T14:46:15;100726.72;;;16.14;67.61
42105;BME280;70664;51.472;5.712;2024-03-23T14:48:43;100725.81;;;16.15;67.26
42105;BME280;70664;51.472;5.712;2024-03-23T14:51:10;100723.19;;;16.17;67.31
42105;BME280;70664;51.472;5.712;2024-03-23T14:53:39;100713.69;;;16.17;67.51
42105;BME280;70664;51.472;5.712;2024-03-23T14:56:07;100707.63;;;16.17;67.55
42105;BME280;70664;51.472;5.712;2024-03-23T14:58:33;100703.25;;;16.19;67.58